createdAt,value
2022-08-27T00:00:28.378Z,97906.84
2022-08-27T00:02:36.071Z,97908.00
2022-08-27T00:04:43.898Z,97909.38
2022-08-27T00:06:48.774Z,97908.09
2022-08-27T00:08:54.951Z,97910.91
2022-08-27T00:11:00.068Z,97909.94
2022-08-27T00:13:04.823Z,97915.06
2022-08-27T00:15:11.820Z,97911.88
2022-08-27T00:17:22.674Z,97913.56
2022-08-27T00:19:27.639Z,97912.00
2022-08-27T00:21:35.643Z,97915.22
2022-08-27T00:23:41.290Z,97918.41
2022-08-27T00:25:46.154Z,97921.63
2022-08-27T00:27:55.587Z,97915.09
2022-08-27T00:30:00.604Z,97920.81
2022-08-27T00:32:06.066Z,97930.53
2022-08-27T00:34:12.967Z,97921.66
2022-08-27T00:36:18.497Z,97927.22
2022-08-27T00:38:26.625Z,97928.16
2022-08-27T00:40:31.824Z,97930.69
2022-08-27T00:42:36.963Z,97926.06
2022-08-27T00:44:41.860Z,97931.91
2022-08-27T00:46:52.560Z,97932.31
2022-08-27T00:49:01.686Z,97929.81
2022-08-27T00:51:08.942Z,97935.50
2022-08-27T00:53:16.918Z,97930.91
2022-08-27T00:55:28.679Z,97932.72
2022-08-27T00:57:34.128Z,97936.47
2022-08-27T00:59:39.621Z,97942.31
2022-08-27T01:01:58.860Z,97934.13
2022-08-27T01:04:07.202Z,97936.09
2022-08-27T01:06:16.174Z,97935.66
2022-08-27T01:08:23.868Z,97941.66
2022-08-27T01:10:32.682Z,97937.22
2022-08-27T01:12:38.633Z,97941.25
2022-08-27T01:14:47.193Z,97941.78
2022-08-27T01:16:56.179Z,97943.06
2022-08-27T01:19:01.803Z,97945.31
2022-08-27T01:21:15.515Z,97958.81
2022-08-27T01:23:28.149Z,97951.00
2022-08-27T01:25:36.012Z,97953.34
2022-08-27T01:27:42.178Z,97952.81
2022-08-27T01:29:47.990Z,97960.41
2022-08-27T01:31:52.964Z,97956.25
2022-08-27T01:34:00.455Z,97955.81
2022-08-27T01:36:05.928Z,97962.22
2022-08-27T01:38:18.298Z,97961.41
2022-08-27T01:40:38.181Z,97960.19
2022-08-27T01:42:45.729Z,97959.09
2022-08-27T01:44:54.069Z,97963.94
2022-08-27T01:46:58.986Z,97961.19
2022-08-27T01:49:03.706Z,97961.72
2022-08-27T01:51:09.887Z,97962.69
2022-08-27T01:53:18.003Z,97964.38
2022-08-27T01:55:25.411Z,97965.59
2022-08-27T01:57:33.026Z,97967.41
2022-08-27T01:59:39.598Z,97961.69
2022-08-27T02:01:45.170Z,97963.38
2022-08-27T02:03:50.371Z,97967.97
2022-08-27T02:05:55.230Z,97970.03
2022-08-27T02:08:00.704Z,97969.50
2022-08-27T02:10:06.721Z,97971.16
2022-08-27T02:12:12.009Z,97967.53
2022-08-27T02:14:20.418Z,97968.22
2022-08-27T02:16:25.449Z,97960.41
2022-08-27T02:18:30.417Z,97959.47
2022-08-27T02:20:35.497Z,97954.03
2022-08-27T02:22:40.303Z,97956.25
2022-08-27T02:24:45.222Z,97960.56
2022-08-27T02:26:50.161Z,97958.91
2022-08-27T02:28:55.362Z,97959.47
2022-08-27T02:31:02.949Z,97948.72
2022-08-27T02:33:08.457Z,97958.63
2022-08-27T02:35:13.385Z,97950.28
2022-08-27T02:37:18.630Z,97948.47
2022-08-27T02:39:23.751Z,97947.63
2022-08-27T02:41:28.583Z,97940.25
2022-08-27T02:43:33.677Z,97936.66
2022-08-27T02:45:40.864Z,97935.81
2022-08-27T02:47:48.121Z,97933.31
2022-08-27T02:49:53.002Z,97934.00
2022-08-27T02:51:58.897Z,97931.09
2022-08-27T02:54:04.105Z,97924.53
2022-08-27T02:56:10.538Z,97925.25
2022-08-27T02:58:17.012Z,97923.59
2022-08-27T03:00:24.549Z,97923.44
2022-08-27T03:02:29.528Z,97922.47
2022-08-27T03:04:37.318Z,97910.19
2022-08-27T03:06:42.379Z,97914.78
2022-08-27T03:08:52.047Z,97914.22
2022-08-27T03:10:58.037Z,97909.94
2022-08-27T03:13:02.958Z,97906.03
2022-08-27T03:15:09.627Z,97913.84
2022-08-27T03:17:27.079Z,97902.28
2022-08-27T03:19:32.127Z,97904.78
2022-08-27T03:21:39.413Z,97901.44
2022-08-27T03:23:44.335Z,97904.47
2022-08-27T03:25:54.223Z,97906.28
2022-08-27T03:27:59.099Z,97911.75
2022-08-27T03:30:04.504Z,97908.38
2022-08-27T03:32:10.086Z,97916.31
2022-08-27T03:34:14.955Z,97914.22
2022-08-27T03:36:26.239Z,97916.47
2022-08-27T03:38:33.703Z,97913.56
2022-08-27T03:40:38.700Z,97911.03
2022-08-27T03:42:43.525Z,97918.41
2022-08-27T03:44:48.384Z,97917.59
2022-08-27T03:46:54.102Z,97916.03
2022-08-27T03:48:59.168Z,97912.41
2022-08-27T03:51:08.245Z,97908.81
2022-08-27T03:53:13.806Z,97903.53
2022-08-27T03:55:21.577Z,97917.59
2022-08-27T03:57:26.522Z,97908.50
2022-08-27T03:59:31.369Z,97913.78
2022-08-27T04:01:36.798Z,97904.91
2022-08-27T04:03:41.718Z,97904.19
2022-08-27T04:05:46.965Z,97900.72
2022-08-27T04:07:52.333Z,97898.19
2022-08-27T04:09:57.228Z,97900.16
2022-08-27T04:12:05.042Z,97900.03
2022-08-27T04:14:23.463Z,97899.06
2022-08-27T04:16:32.070Z,97895.28
2022-08-27T04:18:37.175Z,97891.69
2022-08-27T04:20:41.768Z,97892.78
2022-08-27T04:22:46.595Z,97891.13
2022-08-27T04:24:51.506Z,97896.53
2022-08-27T04:26:56.386Z,97891.13
2022-08-27T04:29:03.873Z,97885.56
2022-08-27T04:31:16.685Z,97891.81
2022-08-27T04:33:21.862Z,97897.69
2022-08-27T04:35:26.716Z,97898.50
2022-08-27T04:37:34.812Z,97896.81
2022-08-27T04:39:39.838Z,97894.16
2022-08-27T04:41:45.328Z,97895.00
2022-08-27T04:43:51.737Z,97899.84
2022-08-27T04:45:59.695Z,97896.88
2022-08-27T04:48:04.538Z,97893.69
2022-08-27T04:50:10.228Z,97895.75
2022-08-27T04:52:15.677Z,97893.63
2022-08-27T04:54:32.212Z,97897.81
2022-08-27T04:56:38.603Z,97904.94
2022-08-27T04:58:43.871Z,97905.94
2022-08-27T05:00:51.349Z,97908.63
2022-08-27T05:02:58.826Z,97912.41
2022-08-27T05:05:03.756Z,97909.34
2022-08-27T05:07:10.215Z,97925.63
2022-08-27T05:09:16.063Z,97926.34
2022-08-27T05:11:24.317Z,97920.91
2022-08-27T05:13:30.102Z,97925.25
2022-08-27T05:15:35.036Z,97923.16
2022-08-27T05:17:39.791Z,97921.75
2022-08-27T05:19:47.261Z,97925.09
2022-08-27T05:21:54.512Z,97919.78
2022-08-27T05:24:01.184Z,97925.81
2022-08-27T05:26:06.310Z,97927.72
2022-08-27T05:28:11.096Z,97928.56
2022-08-27T05:30:16.539Z,97927.34
2022-08-27T05:32:21.763Z,97931.09
2022-08-27T05:34:27.243Z,97924.69
2022-08-27T05:36:37.777Z,97926.63
2022-08-27T05:38:53.032Z,97920.22
2022-08-27T05:41:05.255Z,97927.22
2022-08-27T05:43:10.833Z,97921.63
2022-08-27T05:45:16.310Z,97934.44
2022-08-27T05:47:21.280Z,97933.63
2022-08-27T05:49:26.133Z,97933.19
2022-08-27T05:51:36.483Z,97936.81
2022-08-27T05:53:41.906Z,97937.81
2022-08-27T05:55:47.929Z,97940.72
2022-08-27T05:57:53.344Z,97937.50
2022-08-27T06:00:15.736Z,97936.13
2022-08-27T06:02:21.770Z,97943.53
2022-08-27T06:04:28.227Z,97936.97
2022-08-27T06:06:37.674Z,97936.53
2022-08-27T06:08:42.623Z,97940.84
2022-08-27T06:10:47.575Z,97940.28
2022-08-27T06:12:56.758Z,97943.25
2022-08-27T06:15:02.046Z,97939.88
2022-08-27T06:17:07.403Z,97943.53
2022-08-27T06:19:14.461Z,97942.97
2022-08-27T06:21:24.866Z,97942.25
2022-08-27T06:23:32.484Z,97936.28
2022-08-27T06:25:37.313Z,97940.47
2022-08-27T06:27:42.342Z,97941.03
2022-08-27T06:29:48.522Z,97938.50
2022-08-27T06:31:55.121Z,97933.63
2022-08-27T06:34:07.353Z,97933.78
2022-08-27T06:36:14.861Z,97940.31
2022-08-27T06:38:19.712Z,97939.34
2022-08-27T06:40:27.471Z,97937.81
2022-08-27T06:42:32.386Z,97944.91
2022-08-27T06:44:39.718Z,97945.03
2022-08-27T06:46:45.625Z,97952.59
2022-08-27T06:48:50.944Z,97956.06
2022-08-27T06:50:56.268Z,97958.84
2022-08-27T06:53:01.210Z,97959.56
2022-08-27T06:55:06.900Z,97951.88
2022-08-27T06:57:14.364Z,97952.88
2022-08-27T06:59:21.401Z,97958.88
2022-08-27T07:01:28.320Z,97958.16
2022-08-27T07:03:35.242Z,97955.63
2022-08-27T07:05:43.038Z,97956.22
2022-08-27T07:07:48.924Z,97954.41
2022-08-27T07:09:53.970Z,97960.66
2022-08-27T07:11:58.816Z,97962.19
2022-08-27T07:14:06.338Z,97965.66
2022-08-27T07:16:15.604Z,97966.81
2022-08-27T07:18:20.859Z,97974.16
2022-08-27T07:20:33.162Z,97967.75
2022-08-27T07:22:38.097Z,97970.97
2022-08-27T07:24:43.191Z,97967.78
2022-08-27T07:26:47.935Z,97968.22
2022-08-27T07:28:53.642Z,97971.41
2022-08-27T07:31:01.830Z,97974.34
2022-08-27T07:33:07.118Z,97975.88
2022-08-27T07:35:12.483Z,97982.13
2022-08-27T07:37:17.467Z,97979.22
2022-08-27T07:39:22.166Z,97978.63
2022-08-27T07:41:30.308Z,97978.09
2022-08-27T07:43:48.764Z,97986.16
2022-08-27T07:45:56.413Z,97985.19
2022-08-27T07:48:04.006Z,97987.28
2022-08-27T07:50:10.330Z,97985.47
2022-08-27T07:52:16.260Z,97984.22
2022-08-27T07:54:21.515Z,97986.03
2022-08-27T07:56:26.637Z,97988.09
2022-08-27T07:58:31.225Z,97982.94
2022-08-27T08:00:36.911Z,97982.06
2022-08-27T08:02:45.064Z,97986.66
2022-08-27T08:04:52.599Z,97990.66
2022-08-27T08:06:58.468Z,97987.34
2022-08-27T08:09:03.476Z,97988.88
2022-08-27T08:11:08.882Z,97994.44
2022-08-27T08:13:14.072Z,97995.41
2022-08-27T08:15:20.177Z,98005.09
2022-08-27T08:17:25.052Z,98002.97
2022-08-27T08:19:32.101Z,98003.34
2022-08-27T08:21:40.525Z,98008.41
2022-08-27T08:23:45.698Z,98006.50
2022-08-27T08:25:50.588Z,98001.72
2022-08-27T08:27:55.754Z,98005.78
2022-08-27T08:30:00.993Z,98010.53
2022-08-27T08:32:06.332Z,98003.16
2022-08-27T08:34:11.706Z,98007.75
2022-08-27T08:36:20.952Z,98010.81
2022-08-27T08:38:28.456Z,98004.25
2022-08-27T08:40:37.655Z,98006.34
2022-08-27T08:42:50.605Z,98001.69
2022-08-27T08:44:57.926Z,97999.56
2022-08-27T08:47:08.436Z,98001.16
2022-08-27T08:49:20.940Z,98002.41
2022-08-27T08:51:32.777Z,98001.69
2022-08-27T08:53:47.610Z,97999.03
2022-08-27T08:55:58.475Z,98002.09
2022-08-27T08:58:15.285Z,98006.63
2022-08-27T09:00:20.322Z,98009.22
2022-08-27T09:02:25.014Z,98004.72
2022-08-27T09:04:33.300Z,98010.69
2022-08-27T09:06:44.289Z,98005.03
2022-08-27T09:08:51.840Z,98001.88
2022-08-27T09:11:07.338Z,98001.13
2022-08-27T09:13:22.576Z,98008.81
2022-08-27T09:15:31.783Z,98003.78
2022-08-27T09:17:37.184Z,98007.88
2022-08-27T09:19:43.029Z,98007.47
2022-08-27T09:21:54.498Z,98005.31
2022-08-27T09:24:09.656Z,98014.28
2022-08-27T09:26:25.942Z,98008.59
2022-08-27T09:28:44.782Z,98003.97
2022-08-27T09:30:49.744Z,98012.75
2022-08-27T09:32:58.277Z,98011.06
2022-08-27T09:35:07.033Z,98014.25
2022-08-27T09:37:17.216Z,98010.31
2022-08-27T09:39:31.301Z,98008.09
2022-08-27T09:41:48.392Z,98007.34
2022-08-27T09:44:02.123Z,98006.97
2022-08-27T09:46:19.775Z,98005.28
2022-08-27T09:48:29.972Z,98008.69
2022-08-27T09:50:43.589Z,98002.22
2022-08-27T09:52:56.528Z,98007.06
2022-08-27T09:55:05.433Z,98003.44
2022-08-27T09:57:12.609Z,98004.38
2022-08-27T09:59:27.040Z,98006.22
2022-08-27T10:01:34.453Z,98008.47
2022-08-27T10:03:39.354Z,98007.63
2022-08-27T10:05:50.690Z,98010.78
2022-08-27T10:08:00.727Z,98003.81
2022-08-27T10:10:16.604Z,98004.69
2022-08-27T10:12:28.394Z,98005.78
2022-08-27T10:14:37.683Z,98005.69
2022-08-27T10:16:59.147Z,98004.09
2022-08-27T10:19:18.080Z,98008.47
2022-08-27T10:21:28.022Z,98004.88
2022-08-27T10:23:43.501Z,98002.31
2022-08-27T10:25:55.563Z,98005.63
2022-08-27T10:28:13.183Z,98000.66
2022-08-27T10:30:22.122Z,97998.97
2022-08-27T10:32:43.373Z,97995.28
2022-08-27T10:35:10.528Z,98005.97
2022-08-27T10:37:36.751Z,98002.28
2022-08-27T10:40:04.614Z,97999.97
2022-08-27T10:42:18.070Z,98005.31
2022-08-27T10:44:41.565Z,98003.13
2022-08-27T10:47:12.209Z,98005.44
2022-08-27T10:49:23.636Z,97998.09
2022-08-27T10:51:37.942Z,98000.25
2022-08-27T10:53:53.449Z,97997.44
2022-08-27T10:56:16.185Z,97994.44
2022-08-27T10:58:51.247Z,98002.94
2022-08-27T11:01:04.571Z,98001.03
2022-08-27T11:03:13.731Z,97998.03
2022-08-27T11:05:23.469Z,97995.25
2022-08-27T11:07:33.761Z,97994.16
2022-08-27T11:09:43.821Z,97988.25
2022-08-27T11:12:13.182Z,97989.31
2022-08-27T11:14:31.143Z,97988.47
2022-08-27T11:16:44.806Z,97985.47
2022-08-27T11:18:54.046Z,97987.81
2022-08-27T11:21:04.482Z,97987.63
2022-08-27T11:23:13.041Z,97983.31
2022-08-27T11:25:34.180Z,97985.63
2022-08-27T11:27:40.357Z,97982.97
2022-08-27T11:30:00.387Z,97984.66
2022-08-27T11:32:13.875Z,97978.66
2022-08-27T11:34:25.782Z,97982.31
2022-08-27T11:36:55.893Z,97982.28
2022-08-27T11:39:07.322Z,97976.09
2022-08-27T11:41:44.814Z,97978.75
2022-08-27T11:43:50.902Z,97972.06
2022-08-27T11:46:01.752Z,97972.19
2022-08-27T11:48:20.744Z,97963.72
2022-08-27T11:50:27.388Z,97971.88
2022-08-27T11:52:35.786Z,97965.19
2022-08-27T11:54:50.340Z,97956.78
2022-08-27T11:56:55.379Z,97967.72
2022-08-27T11:59:12.658Z,97955.91
2022-08-27T12:01:29.895Z,97960.88
2022-08-27T12:03:37.131Z,97958.38
2022-08-27T12:05:45.583Z,97957.00
2022-08-27T12:07:54.968Z,97952.63
2022-08-27T12:10:19.786Z,97954.44
2022-08-27T12:12:36.663Z,97945.06
2022-08-27T12:14:48.665Z,97946.50
2022-08-27T12:17:03.961Z,97946.16
2022-08-27T12:19:23.501Z,97948.53
2022-08-27T12:21:38.775Z,97946.16
2022-08-27T12:23:47.078Z,97951.09
2022-08-27T12:26:00.507Z,97953.91
2022-08-27T12:28:09.462Z,97946.75
2022-08-27T12:30:24.607Z,97957.13
2022-08-27T12:32:35.004Z,97948.47
2022-08-27T12:34:47.108Z,97948.03
2022-08-27T12:36:53.748Z,97947.69
2022-08-27T12:39:03.014Z,97941.19
2022-08-27T12:41:09.419Z,97940.25
2022-08-27T12:43:16.724Z,97934.63
2022-08-27T12:45:24.479Z,97930.19
2022-08-27T12:47:36.964Z,97934.63
2022-08-27T12:49:53.815Z,97938.66
2022-08-27T12:52:04.669Z,97938.00
2022-08-27T12:54:28.866Z,97939.97
2022-08-27T12:56:48.228Z,97934.16
2022-08-27T12:59:04.752Z,97937.97
2022-08-27T13:01:28.736Z,97940.78
2022-08-27T13:03:41.284Z,97941.91
2022-08-27T13:05:49.680Z,97943.31
2022-08-27T13:07:57.042Z,97930.25
2022-08-27T13:10:13.216Z,97928.41
2022-08-27T13:12:21.430Z,97931.94
2022-08-27T13:14:27.921Z,97932.16
2022-08-27T13:16:35.139Z,97941.91
2022-08-27T13:18:50.332Z,97934.81
2022-08-27T13:21:05.090Z,97940.13
2022-08-27T13:23:20.311Z,97935.47
2022-08-27T13:25:27.585Z,97937.00
2022-08-27T13:27:35.687Z,97938.66
2022-08-27T13:29:41.306Z,97933.09
2022-08-27T13:31:49.332Z,97935.06
2022-08-27T13:33:58.738Z,97935.94
2022-08-27T13:36:06.841Z,97932.50
2022-08-27T13:38:12.662Z,97925.00
2022-08-27T13:40:28.994Z,97934.00
2022-08-27T13:42:34.179Z,97936.66
2022-08-27T13:44:42.051Z,97931.34
2022-08-27T13:46:56.380Z,97930.34
2022-08-27T13:49:04.024Z,97928.31
2022-08-27T13:51:10.012Z,97929.97
2022-08-27T13:53:34.217Z,97926.97
2022-08-27T13:55:41.173Z,97921.50
2022-08-27T13:57:48.601Z,97918.31
2022-08-27T13:59:53.529Z,97916.16
2022-08-27T14:02:02.892Z,97914.31
2022-08-27T14:04:12.777Z,97916.63
2022-08-27T14:06:35.438Z,97921.28
2022-08-27T14:08:40.610Z,97914.44
2022-08-27T14:10:47.841Z,97918.97
2022-08-27T14:13:00.993Z,97916.63
2022-08-27T14:15:16.834Z,97915.47
2022-08-27T14:17:29.385Z,97911.97
2022-08-27T14:19:40.136Z,97914.16
2022-08-27T14:21:46.085Z,97914.16
2022-08-27T14:23:51.969Z,97906.16
2022-08-27T14:26:00.219Z,97908.97
2022-08-27T14:28:05.652Z,97912.53
2022-08-27T14:30:13.083Z,97913.47
2022-08-27T14:32:19.244Z,97911.59
2022-08-27T14:34:25.210Z,97911.28
2022-08-27T14:36:37.478Z,97904.44
2022-08-27T14:38:46.665Z,97907.44
2022-08-27T14:40:53.844Z,97908.94
2022-08-27T14:42:59.615Z,97901.00
2022-08-27T14:45:04.174Z,97906.59
2022-08-27T14:47:10.283Z,97905.13
2022-08-27T14:49:25.076Z,97899.78
2022-08-27T14:51:37.097Z,97893.34
2022-08-27T14:53:41.923Z,97895.72
2022-08-27T14:55:46.872Z,97914.16
2022-08-27T14:57:56.690Z,97919.88
2022-08-27T15:00:01.340Z,97919.91
2022-08-27T15:02:10.041Z,97927.75
2022-08-27T15:04:15.510Z,97930.13
2022-08-27T15:06:22.466Z,97928.66
2022-08-27T15:08:32.075Z,97926.84
2022-08-27T15:10:37.227Z,97921.84
2022-08-27T15:12:43.122Z,97925.00
2022-08-27T15:14:47.986Z,97917.00
2022-08-27T15:16:53.708Z,97910.03
2022-08-27T15:19:01.078Z,97912.34
2022-08-27T15:21:06.562Z,97910.69
2022-08-27T15:23:13.734Z,97919.66
2022-08-27T15:25:22.062Z,97916.50
2022-08-27T15:27:31.952Z,97914.34
2022-08-27T15:29:43.577Z,97918.00
2022-08-27T15:31:48.779Z,97915.84
2022-08-27T15:33:53.734Z,97923.50
2022-08-27T15:36:03.415Z,97919.00
2022-08-27T15:38:08.946Z,97910.81
2022-08-27T15:40:15.477Z,97913.59
2022-08-27T15:42:23.688Z,97923.16
2022-08-27T15:44:28.698Z,97911.00
2022-08-27T15:46:33.600Z,97919.34
2022-08-27T15:48:39.360Z,97913.81
2022-08-27T15:50:45.508Z,97917.00
2022-08-27T15:52:52.083Z,97917.81
2022-08-27T15:54:57.070Z,97912.13
2022-08-27T15:57:02.529Z,97918.16
2022-08-27T15:59:10.089Z,97916.00
2022-08-27T16:01:18.581Z,97909.97
2022-08-27T16:03:26.178Z,97911.19
2022-08-27T16:05:43.417Z,97904.69
2022-08-27T16:07:48.532Z,97908.66
2022-08-27T16:09:53.968Z,97912.34
2022-08-27T16:11:58.956Z,97908.69
2022-08-27T16:14:04.029Z,97905.69
2022-08-27T16:16:11.707Z,97914.47
2022-08-27T16:18:17.003Z,97911.75
2022-08-27T16:20:25.649Z,97904.44
2022-08-27T16:22:30.753Z,97904.25
2022-08-27T16:24:36.270Z,97910.59
2022-08-27T16:26:41.890Z,97909.78
2022-08-27T16:28:47.008Z,97914.13
2022-08-27T16:30:54.819Z,97918.69
2022-08-27T16:33:02.470Z,97916.34
2022-08-27T16:35:08.843Z,97920.50
2022-08-27T16:37:14.720Z,97923.44
2022-08-27T16:39:19.604Z,97923.28
2022-08-27T16:41:24.283Z,97930.44
2022-08-27T16:43:30.855Z,97926.06
2022-08-27T16:45:35.879Z,97936.69
2022-08-27T16:48:01.064Z,97937.03
2022-08-27T16:50:26.092Z,97937.72
2022-08-27T16:52:31.909Z,97938.59
2022-08-27T16:54:37.856Z,97943.69
2022-08-27T16:56:43.600Z,97946.63
2022-08-27T16:58:53.296Z,97950.25
2022-08-27T17:01:01.047Z,97945.66
2022-08-27T17:03:05.963Z,97952.25
2022-08-27T17:07:38.650Z,97961.81
2022-08-27T17:09:44.264Z,97963.56
2022-08-27T17:11:54.850Z,97968.75
2022-08-27T17:14:02.782Z,97968.22
2022-08-27T17:16:08.272Z,97970.47
2022-08-27T17:18:13.714Z,97960.88
2022-08-27T17:20:21.950Z,97964.28
2022-08-27T17:22:27.598Z,97972.56
2022-08-27T17:24:32.452Z,97981.88
2022-08-27T17:26:37.399Z,97977.09
2022-08-27T17:28:43.549Z,97974.31
2022-08-27T17:30:48.675Z,97976.97
2022-08-27T17:32:53.815Z,97978.31
2022-08-27T17:35:05.120Z,97982.22
2022-08-27T17:37:14.079Z,97984.13
2022-08-27T17:39:19.623Z,97975.03
2022-08-27T17:41:33.656Z,97987.19
2022-08-27T17:43:40.212Z,97981.72
2022-08-27T17:45:45.415Z,97985.75
2022-08-27T17:47:50.182Z,97988.16
2022-08-27T17:49:55.337Z,97991.84
2022-08-27T17:52:02.779Z,97985.84
2022-08-27T17:54:21.993Z,97995.66
2022-08-27T17:56:27.412Z,97993.13
2022-08-27T17:58:32.902Z,97997.91
2022-08-27T18:00:38.655Z,97996.38
2022-08-27T18:02:47.502Z,97998.19
2022-08-27T18:04:53.109Z,98001.44
2022-08-27T18:06:58.250Z,98004.63
2022-08-27T18:09:03.007Z,98004.69
2022-08-27T18:11:10.995Z,98007.56
2022-08-27T18:13:16.639Z,98007.03
2022-08-27T18:15:24.368Z,98013.00
2022-08-27T18:17:29.358Z,98019.31
2022-08-27T18:19:37.825Z,98016.78
2022-08-27T18:21:46.511Z,98021.56
2022-08-27T18:23:53.201Z,98026.19
2022-08-27T18:25:59.657Z,98031.50
2022-08-27T18:28:09.386Z,98028.84
2022-08-27T18:30:16.408Z,98037.34
2022-08-27T18:32:21.346Z,98032.44
2022-08-27T18:34:26.180Z,98039.53
2022-08-27T18:36:31.555Z,98038.41
2022-08-27T18:38:36.468Z,98038.25
2022-08-27T18:40:44.635Z,98041.06
2022-08-27T18:42:49.855Z,98045.91
2022-08-27T18:44:57.676Z,98048.81
2022-08-27T18:47:02.539Z,98053.72
2022-08-27T18:49:07.816Z,98059.59
2022-08-27T18:51:15.480Z,98050.09
2022-08-27T18:53:22.158Z,98054.69
2022-08-27T18:55:30.379Z,98054.56
2022-08-27T18:57:35.307Z,98064.66
2022-08-27T18:59:40.314Z,98073.31
2022-08-27T19:01:48.223Z,98068.72
2022-08-27T19:03:54.972Z,98075.16
2022-08-27T19:06:00.632Z,98070.44
2022-08-27T19:08:06.893Z,98069.34
2022-08-27T19:10:12.596Z,98074.78
2022-08-27T19:12:18.263Z,98083.28
2022-08-27T19:14:23.108Z,98075.91
2022-08-27T19:16:36.020Z,98076.59
2022-08-27T19:18:44.669Z,98073.53
2022-08-27T19:20:49.518Z,98086.72
2022-08-27T19:22:54.433Z,98084.47
2022-08-27T19:24:59.521Z,98085.19
2022-08-27T19:27:04.193Z,98089.66
2022-08-27T19:29:09.308Z,98095.25
2022-08-27T19:31:14.396Z,98100.81
2022-08-27T19:33:19.414Z,98098.69
2022-08-27T19:35:27.085Z,98105.72
2022-08-27T19:37:34.052Z,98100.13
2022-08-27T19:39:40.181Z,98105.69
2022-08-27T19:41:45.145Z,98107.22
2022-08-27T19:43:50.060Z,98112.09
2022-08-27T19:45:55.516Z,98105.28
2022-08-27T19:48:02.271Z,98111.97
2022-08-27T19:50:08.269Z,98113.34
2022-08-27T19:52:16.141Z,98114.03
2022-08-27T19:54:21.649Z,98108.19
2022-08-27T19:56:28.885Z,98106.06
2022-08-27T19:58:33.835Z,98110.41
2022-08-27T20:00:38.767Z,98106.91
2022-08-27T20:02:44.858Z,98106.09
2022-08-27T20:05:14.373Z,98097.59
2022-08-27T20:07:17.236Z,98096.75
2022-08-27T20:09:25.667Z,98093.25
2022-08-27T20:11:30.473Z,98101.50
2022-08-27T20:13:35.453Z,98089.06
2022-08-27T20:15:43.273Z,98094.09
2022-08-27T20:17:51.502Z,98091.31
2022-08-27T20:19:56.684Z,98097.59
2022-08-27T20:22:01.562Z,98096.91
2022-08-27T20:24:09.711Z,98099.13
2022-08-27T20:26:14.610Z,98108.22
2022-08-27T20:28:37.793Z,98111.53
2022-08-27T20:30:43.568Z,98104.28
2022-08-27T20:32:53.641Z,98102.47
2022-08-27T20:34:59.409Z,98099.97
2022-08-27T20:37:05.403Z,98097.31
2022-08-27T20:39:12.818Z,98096.75
2022-08-27T20:41:17.688Z,98092.31
2022-08-27T20:43:22.620Z,98101.38
2022-08-27T20:45:27.875Z,98098.69
2022-08-27T20:47:35.293Z,98090.47
2022-08-27T20:49:41.630Z,98095.78
2022-08-27T20:51:51.242Z,98100.25
2022-08-27T20:54:07.615Z,98099.81
2022-08-27T20:56:15.098Z,98103.31
2022-08-27T20:58:32.604Z,98106.09
2022-08-27T21:00:40.381Z,98101.50
2022-08-27T21:02:46.619Z,98103.72
2022-08-27T21:04:52.136Z,98103.06
2022-08-27T21:06:56.983Z,98103.91
2022-08-27T21:09:01.939Z,98096.03
2022-08-27T21:11:15.732Z,98104.97
2022-08-27T21:13:22.814Z,98109.44
2022-08-27T21:15:27.779Z,98111.41
2022-08-27T21:17:32.661Z,98108.63
2022-08-27T21:19:38.193Z,98103.44
2022-08-27T21:21:43.162Z,98110.84
2022-08-27T21:23:48.909Z,98109.44
2022-08-27T21:25:53.757Z,98108.63
2022-08-27T21:28:03.621Z,98110.56
2022-08-27T21:30:10.986Z,98111.56
2022-08-27T21:32:16.788Z,98117.81
2022-08-27T21:34:21.734Z,98115.88
2022-08-27T21:36:26.388Z,98114.34
2022-08-27T21:38:31.833Z,98112.78
2022-08-27T21:40:36.727Z,98116.16
2022-08-27T21:42:42.001Z,98110.84
2022-08-27T21:44:49.520Z,98107.91
2022-08-27T21:46:54.431Z,98118.66
2022-08-27T21:48:59.319Z,98115.44
2022-08-27T21:51:10.548Z,98119.50
2022-08-27T21:53:17.042Z,98122.00
2022-08-27T21:55:22.117Z,98119.94
2022-08-27T21:57:27.018Z,98126.06
2022-08-27T21:59:32.136Z,98126.19
2022-08-27T22:01:39.481Z,98123.97
2022-08-27T22:03:47.022Z,98122.69
2022-08-27T22:05:53.221Z,98136.78
2022-08-27T22:07:58.105Z,98122.44
2022-08-27T22:10:03.199Z,98135.69
2022-08-27T22:12:08.349Z,98139.16
2022-08-27T22:14:13.294Z,98131.91
2022-08-27T22:16:18.323Z,98131.78
2022-08-27T22:18:26.093Z,98139.28
2022-08-27T22:20:33.118Z,98141.94
2022-08-27T22:22:38.310Z,98134.00
2022-08-27T22:24:43.183Z,98128.56
2022-08-27T22:26:48.106Z,98145.69
2022-08-27T22:28:53.173Z,98132.19
2022-08-27T22:30:57.962Z,98131.22
2022-08-27T22:33:03.756Z,98131.34
2022-08-27T22:35:13.144Z,98133.72
2022-08-27T22:37:18.062Z,98127.03
2022-08-27T22:39:24.051Z,98132.59
2022-08-27T22:41:30.282Z,98122.13
2022-08-27T22:43:37.642Z,98122.69
2022-08-27T22:45:42.210Z,98125.78
2022-08-27T22:47:47.101Z,98124.50
2022-08-27T22:49:52.768Z,98134.81
2022-08-27T22:52:00.685Z,98130.47
2022-08-27T22:54:05.551Z,98122.69
2022-08-27T22:56:10.471Z,98127.97
2022-08-27T22:58:16.281Z,98124.78
2022-08-27T23:00:26.209Z,98131.59
2022-08-27T23:02:31.305Z,98127.72
2022-08-27T23:04:54.073Z,98128.81
2022-08-27T23:07:04.171Z,98127.00
2022-08-27T23:09:09.070Z,98137.75
2022-08-27T23:11:13.979Z,98130.31
2022-08-27T23:13:18.849Z,98130.88
2022-08-27T23:15:25.972Z,98132.97
2022-08-27T23:17:30.835Z,98135.06
2022-08-27T23:19:35.674Z,98131.13
2022-08-27T23:21:40.453Z,98131.66
2022-08-27T23:23:47.999Z,98129.28
2022-08-27T23:26:05.264Z,98134.56
2022-08-27T23:28:14.446Z,98128.72
2022-08-27T23:30:20.666Z,98136.50
2022-08-27T23:32:27.526Z,98136.66
2022-08-27T23:34:32.538Z,98134.72
2022-08-27T23:36:38.393Z,98124.25
2022-08-27T23:38:43.302Z,98129.28
2022-08-27T23:40:52.313Z,98131.06
2022-08-27T23:42:58.018Z,98136.09
2022-08-27T23:45:02.891Z,98136.63
2022-08-27T23:47:07.779Z,98138.03
2022-08-27T23:49:12.636Z,98132.44
2022-08-27T23:51:17.543Z,98134.69
2022-08-27T23:53:22.614Z,98140.94
2022-08-27T23:55:27.279Z,98138.28
2022-08-27T23:57:34.814Z,98134.09
2022-08-27T23:59:39.649Z,98131.97
